Flight Track Log - Related Links

Times and Time Zones

All times are in EDT time to prevent confusion due to time zone crossing. See the AWI3767 flight status page for this flight to view local times or setup timezone preferences in your user account.

Time Position Orientation Groundspeed Altitude Reporting Facility
EDT Latitude Longitude Course Direction KTS MPH feet Rate Location/Type
Mon 05:11:06 PM 38.8333 -77.0333 225° Southwest 149 171 900  Level Potomac TRACON
Mon 05:12:00 PM 38.8000 -77.0333 180° South 181 208 2,300 1,800 Climbing Potomac TRACON
Mon 05:13:00 PM 38.6379 -77.2658 221° Southwest  Level FlightAware Approximate
Mon 05:13:06 PM 38.7667 -77.1000 237° Southwest 259 298 4,500  Level Potomac TRACON
Mon 05:14:00 PM 38.5655 -77.3473 221° Southwest  Level FlightAware Approximate
Mon 05:14:00 PM 38.7500 -77.1833 256° West 262 302 6,800  Level Potomac TRACON
Mon 05:15:00 PM 38.4956 -77.4320 225° Southwest  Level FlightAware Approximate
Mon 05:15:06 PM 38.6833 -77.2500 218° Southwest 264 304 9,400  Level Potomac TRACON
Mon 05:16:00 PM 38.4276 -77.5193 225° Southwest  Level FlightAware Approximate
Mon 05:16:45 PM 38.5983 -77.3450 221° Southwest 280 322 11,400  Level Washington Center
Mon 05:17:43 PM 38.5283 -77.4203 220° Southwest 304 350 12,500 1,373 Climbing Washington Center
Mon 05:18:43 PM 38.4625 -77.4956 222° Southwest 319 367 14,100 1,388 Climbing Washington Center
Mon 05:19:44 PM 38.3903 -77.5783 222° Southwest 331 381 15,300 1,240 Climbing Washington Center
Mon 05:20:44 PM 38.3325 -77.6694 231° Southwest 336 387 16,600 1,140 Climbing Washington Center
Mon 05:21:45 PM 38.2703 -77.7631 230° Southwest 346 398 17,600 908 Climbing Washington Center
Mon 05:22:43 PM 38.2083 -77.8564 230° Southwest 351 404 18,400 864 Climbing Washington Center
Mon 05:23:43 PM 38.1458 -77.9547 231° Southwest 351 404 19,300 793 Climbing Washington Center
Mon 05:24:44 PM 38.0792 -78.0531 229° Southwest 356 410 20,000 639 Climbing Washington Center
Mon 05:25:45 PM 38.0103 -78.1586 230° Southwest 356 410 20,600 793 Climbing Washington Center
Mon 05:26:45 PM 37.9314 -78.2350 217° Southwest 361 415 21,600 763 Climbing Washington Center
Mon 05:27:43 PM 37.8483 -78.3164 218° Southwest 369 425 22,100 555 Climbing Washington Center
Mon 05:28:44 PM 37.7672 -78.3922 216° Southwest 376 433 22,700 541 Climbing Washington Center
Mon 05:29:45 PM 37.6842 -78.4706 217° Southwest 376 433 23,200 454 Climbing Washington Center
Mon 05:30:43 PM 37.6094 -78.5411 217° Southwest 376 433 23,600 454 Climbing Washington Center
Mon 05:31:44 PM 37.5261 -78.6164 216° Southwest 376 433 24,100 492 Climbing Washington Center
Mon 05:32:45 PM 37.4406 -78.6967 217° Southwest 376 433 24,600 446 Climbing Washington Center
Mon 05:33:45 PM 37.3572 -78.7769 217° Southwest 376 433 25,000 356 Climbing Washington Center
Mon 05:34:43 PM 37.2717 -78.8542 216° Southwest 376 433 25,300 454 Climbing Washington Center
Mon 05:35:44 PM 37.1775 -78.9414 216° Southwest 381 438 25,900 694 Climbing Washington Center
Mon 05:36:44 PM 37.0939 -79.0186 216° Southwest 381 438 26,700 595 Climbing Washington Center
Mon 05:37:45 PM 37.0103 -79.0981 217° Southwest 381 438 27,100 403 Climbing Washington Center
Mon 05:38:43 PM 36.9244 -79.1747 216° Southwest 376 433 27,500 458 Climbing Washington Center
Mon 05:39:43 PM 36.8514 -79.2439 217° Southwest 371 427 28,000 694 Climbing Washington Center
Mon 05:40:44 PM 36.7719 -79.3181 217° Southwest 371 427 28,900 689 Climbing Washington Center
Mon 05:41:45 PM 36.6883 -79.3917 215° Southwest 371 427 29,400 500 Climbing Washington Center
Mon 05:42:44 PM 36.6131 -79.4631 217° Southwest 371 427 29,900 300 Climbing Washington Center
Mon 05:43:45 PM 36.5228 -79.5414 215° Southwest 371 427 30,000 39 Climbing Washington Center
Mon 05:45:16 PM 36.3931 -79.6592 216° Southwest 362 417 30,000  Level Atlanta Center
Mon 05:46:16 PM 36.3122 -79.7333 216° Southwest 367 422 30,000  Level Atlanta Center
Mon 05:47:16 PM 36.2272 -79.8072 215° Southwest 367 422 30,000  Level Atlanta Center
Mon 05:48:16 PM 36.1483 -79.8783 216° Southwest 367 422 30,000  Level Atlanta Center
Mon 05:49:16 PM 36.0756 -79.9464 217° Southwest 367 422 30,000  Level Atlanta Center
Mon 05:50:16 PM 35.9875 -79.9994 206° Southwest 367 422 30,000  Level Atlanta Center
Mon 05:51:16 PM 35.8953 -80.0475 203° Southwest 361 415 30,000  Level Atlanta Center
Mon 05:52:16 PM 35.8031 -80.0956 203° Southwest 361 415 30,000 -200 Level Atlanta Center
Mon 05:53:16 PM 35.7025 -80.1517 204° Southwest 367 422 29,600 -900 Descending Atlanta Center
Mon 05:54:16 PM 35.6275 -80.2139 214° Southwest 367 422 28,200 -2,000 Descending Atlanta Center
Mon 05:55:16 PM 35.5275 -80.2928 213° Southwest 379 436 25,600 -2,050 Descending Atlanta Center
Mon 05:56:16 PM 35.4481 -80.3575 214° Southwest 384 442 24,100 -800 Descending Atlanta Center
Mon 05:57:16 PM 35.3564 -80.4303 213° Southwest 384 442 24,000 -50 Descending Atlanta Center
Mon 05:58:16 PM 35.2667 -80.5003 213° Southwest 384 442 24,000  Level Atlanta Center
Mon 05:59:16 PM 35.1769 -80.5703 213° Southwest 384 442 24,000  Level Atlanta Center
Mon 06:00:16 PM 35.0914 -80.6425 215° Southwest 384 442 24,000 -900 Level Atlanta Center
Mon 06:01:16 PM 34.9911 -80.7175 212° Southwest 384 442 22,200 -1,000 Descending Atlanta Center
Mon 06:02:16 PM 34.9011 -80.7894 213° Southwest 390 449 22,000 -63 Descending Atlanta Center
Mon 06:04:28 PM 34.6997 -80.9506 213° Southwest 403 464 22,000  Level Jacksonville Center
Mon 06:05:28 PM 34.6089 -81.0183 212° Southwest 398 458 22,000  Level Jacksonville Center
Mon 06:06:28 PM 34.5203 -81.0883 213° Southwest 391 450 22,000  Level Jacksonville Center
Mon 06:07:28 PM 34.4317 -81.1581 213° Southwest 385 443 22,000  Level Jacksonville Center
Mon 06:08:28 PM 34.3408 -81.2278 212° Southwest 390 449 22,000  Level Jacksonville Center
Mon 06:09:28 PM 34.2519 -81.2972 213° Southwest 390 449 22,000 -150 Level Jacksonville Center
Mon 06:10:28 PM 34.1589 -81.3692 213° Southwest 390 449 21,700 -950 Descending Jacksonville Center
Mon 06:11:28 PM 34.0639 -81.4386 211° Southwest 390 449 20,100 -1,750 Descending Jacksonville Center
Mon 06:12:28 PM 33.9750 -81.5078 213° Southwest 395 455 18,200 -1,950 Descending Jacksonville Center
Mon 06:13:28 PM 33.8900 -81.5742 213° Southwest 385 443 16,200 -2,050 Descending Jacksonville Center
Mon 06:14:28 PM 33.8031 -81.6378 211° Southwest 379 436 14,100 -2,100 Descending Jacksonville Center
Mon 06:16:00 PM 33.6792 -81.7268 211° Southwest  Level FlightAware Approximate
Mon 06:23:00 PM 33.3667 -81.9500 212° Southwest  Level FlightAware Approximate

Login

Don't have an account? Register now (free) for customized features, flight alerts, and more!